Andrews, Texas
Current Conditions -  °F | °C
As of 8:15 PM on Friday 28 Nov 2014 (Local Time) from KE11 Reporting Station
Clear Clear  
Wind Chill: 56°   Ceiling: Unl
Heat Index: 56°   Visibility: 10mi
Dew Point: 23°   Wind: 10mph
Humidity: 28%   Direction: 210°SSW
Pressure: 30.02"   Gusts: NA
Location:  32.32°N, 102.54°W
Report Text: KE11 290215Z AUTO 21009KT 10SM CLR 13/M05 A3002 RMK AO2 T01321050
Loading
Personal Weather Stations






























Interactive Weather Map New forecast layout! Learn more

10-Day Weather Forecast

Advertisements
Track Severe Weather on mobile